Time;durP1;ratioP1;P1;durP2;ratioP2;P2;SDS_P1;SDS_P2;PMS_P1;PMS_P2;Temp;Humidity;BMP_temperature;BMP_pressure;BME280_temperature;BME280_humidity;BME280_pressure;Samples;Min_cycle;Max_cycle;Signal;HPM_P1;HPM_P2
2023/07/07 00:00:27;;;;;;;0.10;0.10;;;;;;;14.90;63.48;97898.41;5012723;28;20036;-74
2023/07/07 00:02:55;;;;;;;0.15;0.15;;;;;;;15.13;62.69;97908.63;5013162;28;20053;-74
2023/07/07 00:05:23;;;;;;;0.00;0.00;;;;;;;14.91;63.34;97903.59;5020151;28;20052;-75
2023/07/07 00:07:50;;;;;;;0.13;0.13;;;;;;;14.95;63.20;97907.47;5020157;28;20128;-75
2023/07/07 00:10:19;;;;;;;0.20;0.20;;;;;;;14.78;64.18;97894.75;5019454;28;20456;-75
2023/07/07 00:12:47;;;;;;;0.10;0.10;;;;;;;14.89;63.67;97897.59;5024234;28;20129;-74
2023/07/07 00:15:15;;;;;;;0.10;0.10;;;;;;;14.73;64.53;97897.25;5012678;28;20050;-75
2023/07/07 00:17:42;;;;;;;0.13;0.13;;;;;;;14.61;64.81;97899.78;5013522;28;20041;-74
2023/07/07 00:20:11;;;;;;;0.10;0.10;;;;;;;14.86;63.80;97902.56;5018510;28;20042;-75
2023/07/07 00:22:40;;;;;;;0.20;0.20;;;;;;;15.00;63.34;97896.09;5008973;28;20034;-74
2023/07/07 00:25:09;;;;;;;0.13;0.13;;;;;;;14.84;63.70;97894.75;5010459;28;20531;-75
2023/07/07 00:27:38;;;;;;;0.15;0.15;;;;;;;14.77;63.85;97898.47;5013960;28;20069;-77
2023/07/07 00:30:08;;;;;;;0.00;0.00;;;;;;;14.77;63.68;97899.28;5015458;28;20042;-74
2023/07/07 00:32:36;;;;;;;0.10;0.10;;;;;;;14.82;63.87;97906.72;5017643;28;20133;-75
2023/07/07 00:35:05;;;;;;;0.10;0.10;;;;;;;14.64;64.51;97902.84;5026578;28;20061;-75
2023/07/07 00:37:32;;;;;;;0.20;0.20;;;;;;;14.65;64.25;97904.50;5023264;28;20054;-74
2023/07/07 00:40:02;;;;;;;0.10;0.10;;;;;;;14.62;64.15;97902.28;5016968;28;20063;-75
2023/07/07 00:42:30;;;;;;;0.28;0.10;;;;;;;14.53;64.58;97900.03;5018938;28;20061;-74
2023/07/07 00:45:14;;;;;;;0.10;0.10;;;;;;;14.43;64.94;97908.50;5012183;28;20125;-74
2023/07/07 00:47:46;;;;;;;0.10;0.10;;;;;;;14.39;64.96;97901.94;5010946;28;20064;-74
2023/07/07 00:50:15;;;;;;;0.10;0.10;;;;;;;14.37;65.06;97908.50;5025154;28;20041;-74
2023/07/07 00:52:44;;;;;;;0.10;0.10;;;;;;;14.40;64.85;97902.75;5009511;28;20041;-75
2023/07/07 00:55:15;;;;;;;0.10;0.10;;;;;;;14.42;64.49;97900.69;5027809;28;20042;-74
2023/07/07 00:57:43;;;;;;;0.10;0.10;;;;;;;14.37;64.83;97903.97;5014493;28;20120;-73
2023/07/07 01:00:13;;;;;;;0.10;0.10;;;;;;;14.33;64.91;97905.41;5008410;28;20042;-75
2023/07/07 01:02:41;;;;;;;0.05;0.05;;;;;;;14.30;65.15;97909.34;5007347;28;20038;-76
2023/07/07 01:05:09;;;;;;;0.10;0.10;;;;;;;14.29;64.85;97913.06;5013775;28;20096;-73
2023/07/07 01:07:40;;;;;;;0.10;0.10;;;;;;;14.37;64.75;97903.13;5017891;28;20040;-75
2023/07/07 01:10:08;;;;;;;0.05;0.05;;;;;;;14.26;65.00;97913.50;5013781;28;20049;-75
2023/07/07 01:12:36;;;;;;;0.20;0.20;;;;;;;14.22;65.13;97914.94;5026814;28;20049;-75
2023/07/07 01:15:04;;;;;;;0.17;0.17;;;;;;;14.27;64.91;97907.09;5020729;28;20046;-75
2023/07/07 01:17:39;;;;;;;0.10;0.10;;;;;;;14.16;65.49;97920.31;5013955;28;20050;-75
2023/07/07 01:20:14;;;;;;;0.10;0.10;;;;;;;14.01;65.96;97920.56;5015878;28;20085;-76
2023/07/07 01:23:14;;;;;;;0.10;0.10;;;;;;;14.00;65.79;97918.91;5016827;28;20037;-75
2023/07/07 01:26:06;;;;;;;0.13;0.13;;;;;;;14.03;65.69;97917.66;5003627;28;20045;-73
2023/07/07 01:28:48;;;;;;;0.15;0.15;;;;;;;14.06;65.33;97920.75;5008843;28;20046;-74
2023/07/07 01:31:19;;;;;;;0.00;0.00;;;;;;;13.96;65.82;97915.81;5030629;28;20061;-74
2023/07/07 01:33:47;;;;;;;0.10;0.10;;;;;;;13.87;66.24;97918.91;5017894;28;20099;-74
2023/07/07 01:36:15;;;;;;;0.10;0.10;;;;;;;13.81;66.48;97920.56;5037995;28;20046;-74
2023/07/07 01:38:45;;;;;;;0.10;0.10;;;;;;;13.81;66.50;97919.72;5019785;28;20056;-73
2023/07/07 01:41:18;;;;;;;0.10;0.10;;;;;;;13.62;66.84;97915.19;5019760;28;20436;-73
2023/07/07 01:43:51;;;;;;;0.10;0.10;;;;;;;13.69;66.45;97913.34;5006252;28;20100;-74
2023/07/07 01:46:27;;;;;;;0.30;0.30;;;;;;;13.76;66.35;97911.50;5011883;28;20049;-74
2023/07/07 01:49:05;;;;;;;0.20;0.20;;;;;;;13.71;66.37;97911.28;5016246;28;20174;-73
2023/07/07 01:51:36;;;;;;;0.08;0.08;;;;;;;13.70;66.62;97917.69;5020421;28;20048;-76
2023/07/07 01:54:05;;;;;;;0.20;0.20;;;;;;;13.71;66.15;97912.09;5022256;28;20067;-74
2023/07/07 01:56:32;;;;;;;0.10;0.10;;;;;;;13.53;66.73;97911.88;5021734;28;20092;-72
2023/07/07 01:59:01;;;;;;;0.13;0.13;;;;;;;13.43;67.11;97912.31;5019822;28;20485;-75
2023/07/07 02:01:30;;;;;;;0.20;0.10;;;;;;;13.38;67.32;97911.28;5052507;22;20129;-75
2023/07/07 02:03:58;;;;;;;0.10;0.10;;;;;;;13.26;67.84;97919.09;5029198;28;20124;-73
2023/07/07 02:06:26;;;;;;;0.10;0.10;;;;;;;13.25;68.06;97914.75;5029267;28;20207;-73
2023/07/07 02:08:54;;;;;;;0.20;0.20;;;;;;;13.30;67.77;97917.63;5029375;28;20041;-74
2023/07/07 02:11:21;;;;;;;0.10;0.10;;;;;;;13.29;67.75;97915.97;5029244;28;20041;-74
2023/07/07 02:13:49;;;;;;;0.10;0.10;;;;;;;13.29;67.73;97915.19;5030173;28;20041;-74
2023/07/07 02:16:16;;;;;;;0.10;0.10;;;;;;;13.20;67.85;97912.66;5025157;28;20476;-74
2023/07/07 02:18:48;;;;;;;0.20;0.20;;;;;;;13.11;68.22;97918.41;5031048;28;20034;-74
2023/07/07 02:21:16;;;;;;;0.20;0.20;;;;;;;13.14;68.13;97918.84;5030192;28;20046;-74
2023/07/07 02:23:45;;;;;;;0.10;0.10;;;;;;;13.08;68.38;97916.13;5029325;28;20049;-74
2023/07/07 02:26:13;;;;;;;0.10;0.10;;;;;;;13.11;68.12;97918.41;5032087;28;20050;-75
2023/07/07 02:28:42;;;;;;;0.10;0.10;;;;;;;13.08;68.59;97914.25;5032173;28;20124;-75
2023/07/07 02:31:11;;;;;;;0.10;0.10;;;;;;;13.03;68.60;97915.91;5026533;28;20458;-75
2023/07/07 02:33:38;;;;;;;0.10;0.10;;;;;;;13.20;67.98;97917.22;5029564;28;20054;-75
2023/07/07 02:36:11;;;;;;;0.10;0.10;;;;;;;13.16;67.89;97915.97;5034533;28;20053;-75
2023/07/07 02:38:39;;;;;;;0.13;0.13;;;;;;;13.03;68.21;97922.09;5030022;28;20041;-74
2023/07/07 02:41:06;;;;;;;0.10;0.10;;;;;;;12.92;68.48;97920.00;5030590;28;20084;-74
2023/07/07 02:43:34;;;;;;;0.15;0.15;;;;;;;12.89;68.83;97923.06;5024698;28;20444;-75
2023/07/07 02:46:02;;;;;;;0.20;0.20;;;;;;;12.92;68.64;97919.16;5048652;28;20041;-75
2023/07/07 02:48:31;;;;;;;0.08;0.08;;;;;;;12.87;68.50;97923.25;5024655;28;20051;-74
2023/07/07 02:51:00;;;;;;;0.10;0.10;;;;;;;12.84;69.11;97929.03;5030260;28;20175;-74
2023/07/07 02:53:31;;;;;;;0.20;0.20;;;;;;;12.86;68.55;97927.00;5029136;28;20041;-74
2023/07/07 02:55:58;;;;;;;0.10;0.10;;;;;;;12.86;68.67;97918.97;5031020;28;20030;-75
2023/07/07 02:58:26;;;;;;;0.10;0.10;;;;;;;12.90;68.27;97926.56;5032019;28;20050;-74
2023/07/07 03:00:54;;;;;;;0.20;0.20;;;;;;;12.89;68.43;97925.75;5028677;28;20107;-74
2023/07/07 03:03:26;;;;;;;0.10;0.10;;;;;;;12.86;68.35;97926.16;5039778;28;20045;-73
2023/07/07 03:06:03;;;;;;;0.10;0.10;;;;;;;12.85;68.59;97929.88;5027368;28;20568;-74
2023/07/07 03:08:33;;;;;;;0.10;0.10;;;;;;;12.85;68.27;97925.34;5031918;28;20423;-73
2023/07/07 03:11:05;;;;;;;0.10;0.10;;;;;;;12.76;68.48;97928.41;5026918;28;20041;-74
2023/07/07 03:13:34;;;;;;;0.20;0.20;;;;;;;12.80;68.52;97927.78;5031935;28;20168;-74
2023/07/07 03:16:09;;;;;;;0.10;0.10;;;;;;;12.60;68.83;97926.88;5035371;28;20045;-74
2023/07/07 03:18:39;;;;;;;0.10;0.10;;;;;;;12.60;68.97;97937.59;5028280;28;20042;-74
2023/07/07 03:21:10;;;;;;;0.10;0.10;;;;;;;12.60;68.98;97937.59;5031952;28;20496;-73
2023/07/07 03:23:40;;;;;;;0.15;0.15;;;;;;;12.61;68.90;97936.56;5033848;28;20042;-73
2023/07/07 03:26:10;;;;;;;0.10;0.10;;;;;;;12.60;68.91;97939.44;5031011;28;20447;-73
2023/07/07 03:28:38;;;;;;;0.10;0.10;;;;;;;12.62;68.83;97942.75;5049432;28;20137;-75
2023/07/07 03:31:09;;;;;;;0.10;0.10;;;;;;;12.70;68.41;97939.91;5035397;28;20389;-74
2023/07/07 03:33:39;;;;;;;0.10;0.10;;;;;;;12.60;68.66;97942.94;5032719;28;20408;-76
2023/07/07 03:36:10;;;;;;;0.10;0.10;;;;;;;12.52;68.72;97940.44;5031329;28;20041;-74
2023/07/07 03:38:37;;;;;;;0.20;0.20;;;;;;;12.32;69.69;97939.50;5031437;28;20046;-74
2023/07/07 03:41:07;;;;;;;0.15;0.15;;;;;;;12.39;69.54;97956.41;5033005;28;20394;-74
2023/07/07 03:43:35;;;;;;;0.20;0.20;;;;;;;12.45;68.96;97952.97;5032768;28;20037;-74
2023/07/07 03:46:03;;;;;;;0.10;0.10;;;;;;;12.30;69.39;97949.56;5028900;28;20059;-75
2023/07/07 03:48:31;;;;;;;0.30;0.30;;;;;;;12.15;70.24;97959.56;5031295;28;20786;-74
2023/07/07 03:51:01;;;;;;;0.20;0.20;;;;;;;12.24;69.89;97953.88;5032336;28;20624;-74
2023/07/07 03:53:30;;;;;;;0.15;0.15;;;;;;;12.32;69.52;97958.25;5031425;28;20045;-74
2023/07/07 03:55:59;;;;;;;0.30;0.30;;;;;;;12.35;69.38;97960.53;5031098;28;20048;-74
2023/07/07 03:58:30;;;;;;;0.22;0.22;;;;;;;12.39;69.38;97961.78;5030963;28;20147;-75
2023/07/07 04:01:01;;;;;;;0.15;0.15;;;;;;;12.39;69.20;97962.59;5030211;28;20044;-75
2023/07/07 04:03:28;;;;;;;0.10;0.10;;;;;;;12.33;69.42;97966.06;5031660;28;20053;-75
2023/07/07 04:05:57;;;;;;;0.10;0.10;;;;;;;12.40;69.05;97958.91;5029875;28;20048;-75
2023/07/07 04:08:26;;;;;;;0.00;0.00;;;;;;;12.44;69.11;97962.84;5031276;28;20095;-75
2023/07/07 04:11:00;;;;;;;0.15;0.15;;;;;;;12.34;69.57;97962.38;5031348;28;20140;-75
2023/07/07 04:13:30;;;;;;;0.10;0.10;;;;;;;12.36;69.44;97964.84;5030850;28;20037;-74
2023/07/07 04:16:00;;;;;;;0.20;0.20;;;;;;;12.52;69.02;97963.72;5035213;28;20042;-75
2023/07/07 04:18:28;;;;;;;0.10;0.10;;;;;;;12.45;69.00;97961.00;5029635;28;20088;-74
2023/07/07 04:20:58;;;;;;;0.20;0.20;;;;;;;12.35;69.52;97969.38;5032279;28;20099;-74
2023/07/07 04:23:26;;;;;;;0.10;0.10;;;;;;;12.36;69.45;97967.50;5031758;28;20068;-74
2023/07/07 04:25:55;;;;;;;0.43;0.30;;;;;;;12.38;69.41;97976.19;5028483;28;20053;-74
2023/07/07 04:28:22;;;;;;;0.10;0.10;;;;;;;12.40;69.27;97971.47;5034914;28;20046;-74
2023/07/07 04:30:53;;;;;;;0.10;0.10;;;;;;;12.49;68.98;97971.09;5037448;28;20053;-74
2023/07/07 04:33:20;;;;;;;0.10;0.10;;;;;;;12.50;68.99;97980.78;5032033;28;20056;-75
2023/07/07 04:35:51;;;;;;;0.00;0.00;;;;;;;12.64;68.77;97981.69;5036227;28;20347;-75
2023/07/07 04:38:20;;;;;;;0.17;0.17;;;;;;;12.71;68.37;97985.22;5029122;28;20120;-76
2023/07/07 04:40:48;;;;;;;0.20;0.20;;;;;;;12.73;68.21;97977.84;5029724;28;20137;-75
2023/07/07 04:43:16;;;;;;;0.10;0.10;;;;;;;12.80;68.01;97984.03;5028429;28;20404;-75
2023/07/07 04:45:45;;;;;;;0.20;0.20;;;;;;;12.82;68.31;97990.03;5022962;28;20512;-75
2023/07/07 04:48:14;;;;;;;0.10;0.10;;;;;;;12.78;67.72;97982.56;5020886;28;20055;-75
2023/07/07 04:50:41;;;;;;;0.10;0.10;;;;;;;12.68;68.18;97996.34;5019669;28;20111;-75
2023/07/07 04:53:09;;;;;;;0.10;0.10;;;;;;;12.70;68.33;97996.13;5024097;28;20033;-74
2023/07/07 04:55:41;;;;;;;0.17;0.17;;;;;;;12.69;68.30;98002.53;5030443;28;20519;-74
2023/07/07 04:58:08;;;;;;;0.10;0.10;;;;;;;12.70;68.46;97996.97;5031850;28;20061;-74
2023/07/07 05:00:36;;;;;;;0.17;0.13;;;;;;;12.73;68.79;98001.09;5031399;28;20041;-75
2023/07/07 05:03:04;;;;;;;0.22;0.22;;;;;;;12.70;68.47;98004.19;5030716;28;20444;-75
2023/07/07 05:05:36;;;;;;;0.10;0.10;;;;;;;12.69;68.42;97998.00;5030742;28;20147;-75
2023/07/07 05:08:03;;;;;;;0.20;0.20;;;;;;;12.79;68.39;97987.75;5029231;28;20049;-74
2023/07/07 05:10:31;;;;;;;0.28;0.20;;;;;;;12.93;68.03;97987.81;5031292;28;20041;-74
2023/07/07 05:12:59;;;;;;;0.30;0.30;;;;;;;13.04;68.10;97993.41;5036678;28;20056;-75
2023/07/07 05:15:27;;;;;;;0.10;0.10;;;;;;;13.17;67.56;97998.88;5030156;28;20053;-74
2023/07/07 05:17:54;;;;;;;0.10;0.10;;;;;;;13.29;67.08;98000.97;5031172;28;20076;-75
2023/07/07 05:20:25;;;;;;;0.10;0.10;;;;;;;13.38;66.78;98000.59;5034215;28;20116;-73
2023/07/07 05:22:54;;;;;;;0.20;0.20;;;;;;;13.48;66.97;98001.03;5031219;28;20049;-73
2023/07/07 05:25:22;;;;;;;0.10;0.10;;;;;;;13.55;66.31;97999.16;5031141;28;20528;-74
2023/07/07 05:27:49;;;;;;;0.10;0.10;;;;;;;13.69;66.70;98005.41;5031548;28;20507;-76
2023/07/07 05:30:17;;;;;;;0.10;0.10;;;;;;;13.78;66.38;97997.97;5025440;28;20056;-75
2023/07/07 05:32:45;;;;;;;0.10;0.10;;;;;;;13.91;65.62;97995.31;5032362;28;20052;-74
2023/07/07 05:35:12;;;;;;;0.10;0.10;;;;;;;14.01;65.10;98002.94;5029796;28;20121;-75
2023/07/07 05:37:40;;;;;;;0.28;0.28;;;;;;;14.13;64.97;98006.63;5023193;28;20484;-74
2023/07/07 05:40:09;;;;;;;0.20;0.20;;;;;;;14.24;64.78;98003.31;5029651;28;20046;-75
2023/07/07 05:42:41;;;;;;;0.10;0.10;;;;;;;14.36;64.82;98003.53;5023695;28;20045;-75
2023/07/07 05:45:09;;;;;;;0.10;0.10;;;;;;;14.51;64.05;98001.50;5031251;28;20436;-74
2023/07/07 05:47:37;;;;;;;0.10;0.10;;;;;;;14.65;63.42;98003.91;5031329;28;20116;-75
2023/07/07 05:50:05;;;;;;;0.15;0.15;;;;;;;14.77;63.29;98009.47;5031051;28;20474;-75
2023/07/07 05:52:33;;;;;;;0.10;0.10;;;;;;;14.86;62.99;98005.50;5023847;28;20091;-76
2023/07/07 05:55:03;;;;;;;0.20;0.20;;;;;;;14.96;62.68;98005.91;5029937;28;20054;-75
2023/07/07 05:57:32;;;;;;;0.17;0.17;;;;;;;15.07;62.47;98004.41;5031185;28;20049;-75
2023/07/07 05:59:59;;;;;;;0.10;0.10;;;;;;;15.19;61.83;98009.94;5030438;28;20037;-76
2023/07/07 06:02:27;;;;;;;0.20;0.20;;;;;;;15.31;61.31;98016.31;5030059;28;20542;-75
2023/07/07 06:04:54;;;;;;;0.13;0.13;;;;;;;15.41;60.81;98008.59;5029229;28;20516;-75
2023/07/07 06:07:22;;;;;;;0.10;0.10;;;;;;;15.49;60.89;98011.03;5029910;28;20057;-75
2023/07/07 06:09:51;;;;;;;0.10;0.10;;;;;;;15.57;60.05;98018.09;5029982;28;20060;-75
2023/07/07 06:12:18;;;;;;;0.10;0.10;;;;;;;15.70;60.64;98013.44;5030127;28;20129;-77
2023/07/07 06:14:47;;;;;;;0.10;0.10;;;;;;;15.81;59.86;98009.22;5029715;28;20041;-76
2023/07/07 06:17:15;;;;;;;0.10;0.10;;;;;;;15.92;59.81;98010.38;5030810;28;20404;-76
2023/07/07 06:19:43;;;;;;;0.20;0.20;;;;;;;16.01;59.33;98011.75;5029899;28;20045;-74
2023/07/07 06:22:10;;;;;;;0.10;0.10;;;;;;;16.15;59.89;98006.06;5033293;28;20045;-74
2023/07/07 06:24:38;;;;;;;0.10;0.10;;;;;;;16.23;59.07;98001.44;5029822;28;20033;-76
2023/07/07 06:27:06;;;;;;;0.10;0.10;;;;;;;16.36;58.57;98006.72;5028771;28;20049;-74
2023/07/07 06:29:35;;;;;;;0.15;0.15;;;;;;;16.48;58.49;98005.78;5030582;28;20127;-74
2023/07/07 06:32:04;;;;;;;0.22;0.22;;;;;;;16.65;58.27;98016.00;5033084;28;20725;-76
2023/07/07 06:34:32;;;;;;;0.15;0.10;;;;;;;16.70;57.36;98016.16;5033269;28;20045;-77
2023/07/07 06:37:00;;;;;;;0.10;0.10;;;;;;;16.75;57.85;98006.34;5031885;28;20041;-78
2023/07/07 06:39:28;;;;;;;0.13;0.13;;;;;;;16.93;57.77;98010.91;5032196;28;20072;-75
2023/07/07 06:41:56;;;;;;;0.10;0.10;;;;;;;17.07;56.88;98017.00;5032572;28;20041;-75
2023/07/07 06:44:25;;;;;;;0.20;0.20;;;;;;;17.21;56.79;98019.31;5031611;28;20083;-76
2023/07/07 06:46:53;;;;;;;0.10;0.10;;;;;;;17.36;57.06;98020.78;5024422;28;20041;-76
2023/07/07 06:49:21;;;;;;;0.10;0.10;;;;;;;17.53;56.55;98016.41;5030649;28;20063;-75
2023/07/07 06:51:49;;;;;;;0.20;0.17;;;;;;;17.68;55.27;98016.84;5033243;28;20548;-75
2023/07/07 06:54:17;;;;;;;0.20;0.20;;;;;;;17.79;55.54;98013.38;5032623;28;20072;-76
2023/07/07 06:56:44;;;;;;;0.10;0.10;;;;;;;17.95;55.42;98028.09;5031606;28;20077;-75
2023/07/07 06:59:12;;;;;;;0.00;0.00;;;;;;;17.94;54.63;98016.47;5032916;28;20509;-75
2023/07/07 07:01:40;;;;;;;0.10;0.10;;;;;;;18.11;54.91;98021.19;4988505;28;1079832;-74
2023/07/07 07:04:07;;;;;;;0.10;0.10;;;;;;;18.23;53.86;98014.75;5034680;28;20045;-74
2023/07/07 07:06:36;;;;;;;0.47;0.20;;;;;;;18.36;54.26;98019.13;5034992;28;20060;-75
2023/07/07 07:09:04;;;;;;;0.15;0.15;;;;;;;18.50;53.84;98020.53;5029517;28;20497;-75
2023/07/07 07:11:32;;;;;;;0.10;0.10;;;;;;;18.67;54.01;98026.94;5031197;28;20092;-75
2023/07/07 07:13:59;;;;;;;0.10;0.10;;;;;;;18.81;52.73;98019.38;5037621;28;20045;-74
2023/07/07 07:16:27;;;;;;;0.13;0.13;;;;;;;18.94;52.75;98023.72;5034007;28;20535;-74
2023/07/07 07:18:54;;;;;;;0.03;0.03;;;;;;;19.11;52.30;98021.91;5033549;28;20117;-75
2023/07/07 07:21:22;;;;;;;0.15;0.10;;;;;;;19.30;52.84;98020.72;5033392;28;20416;-75
2023/07/07 07:23:51;;;;;;;0.00;0.00;;;;;;;19.51;53.06;98023.88;5033586;28;20040;-76
2023/07/07 07:26:19;;;;;;;0.20;0.20;;;;;;;19.71;52.68;98022.38;5033314;28;20046;-76
2023/07/07 07:28:46;;;;;;;0.00;0.00;;;;;;;19.85;51.28;98022.88;5037339;28;20052;-76
2023/07/07 07:31:14;;;;;;;0.20;0.20;;;;;;;19.99;50.94;98018.78;5033831;28;20045;-76
2023/07/07 07:33:41;;;;;;;0.30;0.30;;;;;;;20.19;51.09;98023.75;5034750;28;21905;-76
2023/07/07 07:36:09;;;;;;;0.22;0.20;;;;;;;20.38;49.79;98025.19;5034101;28;20045;-76
2023/07/07 07:38:36;;;;;;;0.10;0.10;;;;;;;20.58;49.23;98011.09;5033076;28;20053;-76
2023/07/07 07:41:05;;;;;;;0.10;0.10;;;;;;;20.77;49.14;98012.47;5033085;28;20041;-75
2023/07/07 07:43:33;;;;;;;0.10;0.10;;;;;;;20.96;48.70;98017.63;5033034;28;20416;-75
2023/07/07 07:46:00;;;;;;;0.10;0.10;;;;;;;21.19;47.33;98010.09;5033005;28;20508;-76
2023/07/07 07:48:28;;;;;;;0.20;0.20;;;;;;;21.45;46.23;98016.66;5034118;28;20509;-76
2023/07/07 07:50:55;;;;;;;0.10;0.10;;;;;;;21.73;46.16;98012.06;5038331;28;20059;-75
2023/07/07 07:53:24;;;;;;;0.43;0.03;;;;;;;21.91;45.03;98014.41;5036977;28;20128;-75
2023/07/07 07:55:52;;;;;;;0.00;0.00;;;;;;;22.08;44.71;98015.19;5032232;28;20537;-75
2023/07/07 07:58:21;;;;;;;0.10;0.10;;;;;;;22.05;43.98;98012.97;5035671;28;20041;-76
2023/07/07 08:00:48;;;;;;;0.00;0.00;;;;;;;21.98;43.84;98015.09;5065427;22;20052;-72
2023/07/07 08:03:16;;;;;;;0.10;0.10;;;;;;;22.22;43.96;98021.81;5051923;28;20053;-72
2023/07/07 08:05:46;;;;;;;0.00;0.00;;;;;;;22.41;42.48;98014.09;5044459;28;20116;-71
2023/07/07 08:08:14;;;;;;;0.10;0.10;;;;;;;22.57;41.81;98009.59;5064402;28;20055;-74
2023/07/07 08:10:44;;;;;;;0.00;0.00;;;;;;;22.77;41.58;98011.66;5048233;28;20049;-72
2023/07/07 08:13:23;;;;;;;0.00;0.00;;;;;;;23.28;39.91;98015.47;5047692;28;20049;-73
2023/07/07 08:16:08;;;;;;;0.10;0.10;;;;;;;23.64;38.51;98028.19;5048577;28;20091;-72
2023/07/07 08:18:35;;;;;;;0.20;0.10;;;;;;;23.83;39.99;98014.88;5050476;28;20559;-72
2023/07/07 08:21:03;;;;;;;0.00;0.00;;;;;;;24.04;38.70;98021.19;5047791;28;20044;-72
2023/07/07 08:23:31;;;;;;;0.20;0.20;;;;;;;24.26;37.15;98023.69;5056441;28;20045;-72
2023/07/07 08:25:59;;;;;;;0.10;0.10;;;;;;;24.43;36.37;98022.31;5049014;28;20152;-72
2023/07/07 08:28:31;;;;;;;0.00;0.00;;;;;;;24.55;35.45;98019.31;5047720;28;20041;-72
2023/07/07 08:31:02;;;;;;;0.00;0.00;;;;;;;24.63;34.67;98017.94;5054620;28;20124;-72
2023/07/07 08:33:30;;;;;;;0.00;0.00;;;;;;;24.75;34.52;98015.75;5046894;28;20052;-73
2023/07/07 08:35:57;;;;;;;0.10;0.10;;;;;;;25.10;32.99;98018.44;5053420;28;20041;-72
2023/07/07 08:38:25;;;;;;;0.00;0.00;;;;;;;25.32;31.36;98015.34;5045395;28;20124;-71
2023/07/07 08:40:55;;;;;;;0.10;0.10;;;;;;;25.62;28.56;98019.91;5051476;28;20044;-72
2023/07/07 08:43:28;;;;;;;0.00;0.00;;;;;;;25.73;30.76;98017.94;5044964;28;20076;-72
2023/07/07 08:45:59;;;;;;;;;;;;;;;25.88;27.53;98015.91;5050914;28;20045;-72
2023/07/07 08:48:37;;;;;;;0.00;0.00;;;;;;;25.75;28.97;98013.78;5051979;28;20035;-72
2023/07/07 08:51:08;;;;;;;0.00;0.00;;;;;;;25.87;28.02;98017.00;5050117;28;20440;-71
2023/07/07 08:53:46;;;;;;;0.00;0.00;;;;;;;26.03;28.68;98020.47;5049193;28;20064;-72
2023/07/07 08:56:18;;;;;;;0.00;0.00;;;;;;;26.14;29.49;98022.03;5052514;28;20451;-72
2023/07/07 08:58:55;;;;;;;0.00;0.00;;;;;;;26.35;30.17;98020.00;5047459;28;20046;-72
2023/07/07 09:01:33;;;;;;;0.08;0.08;;;;;;;26.61;29.60;98015.09;5051626;28;20605;-70
2023/07/07 09:04:11;;;;;;;0.00;0.00;;;;;;;26.82;28.67;98019.28;5051347;28;20531;-73
2023/07/07 09:06:50;;;;;;;0.00;0.00;;;;;;;26.65;27.96;98018.91;5047909;28;20041;-72
2023/07/07 09:09:24;;;;;;;0.20;0.10;;;;;;;26.50;28.30;98022.59;5049619;28;20052;-72
2023/07/07 09:12:05;;;;;;;0.10;0.00;;;;;;;26.53;28.13;98022.03;5050192;28;20412;-72
2023/07/07 09:14:33;;;;;;;0.03;0.03;;;;;;;26.64;28.46;98020.84;5050448;28;20207;-72
2023/07/07 09:17:14;;;;;;;0.05;0.00;;;;;;;26.76;28.65;98017.72;5057959;28;20043;-72
2023/07/07 09:19:43;;;;;;;0.10;0.10;;;;;;;26.81;28.09;98019.56;5040380;28;20465;-72
2023/07/07 09:22:17;;;;;;;0.30;0.10;;;;;;;26.72;27.77;98016.66;5051848;28;20066;-73
2023/07/07 09:24:47;;;;;;;0.00;0.00;;;;;;;26.47;28.35;98014.97;5039705;28;20052;-72
2023/07/07 09:27:17;;;;;;;0.08;0.08;;;;;;;26.52;27.87;98011.34;5046445;28;20045;-72
2023/07/07 09:29:45;;;;;;;0.00;0.00;;;;;;;26.58;28.21;98005.53;5050139;28;20041;-72
2023/07/07 09:32:20;;;;;;;0.00;0.00;;;;;;;26.84;27.57;98008.03;5052659;28;20036;-74
2023/07/07 09:34:48;;;;;;;0.00;0.00;;;;;;;27.02;27.63;98008.16;5049835;28;20052;-72
2023/07/07 09:37:23;;;;;;;0.00;0.00;;;;;;;27.07;27.39;98007.28;5045881;28;20047;-72
2023/07/07 09:40:02;;;;;;;0.00;0.00;;;;;;;27.50;27.91;98010.88;5048465;28;20053;-72
2023/07/07 09:42:39;;;;;;;0.00;0.00;;;;;;;27.69;26.95;98009.00;5046213;28;20515;-72
2023/07/07 09:45:16;;;;;;;0.00;0.00;;;;;;;28.00;26.43;98014.88;5048078;28;20049;-72
2023/07/07 09:47:50;;;;;;;0.00;0.00;;;;;;;28.11;27.50;98016.38;5051209;28;20045;-73
2023/07/07 09:50:22;;;;;;;0.00;0.00;;;;;;;28.22;26.59;98019.00;5049887;28;20048;-70
2023/07/07 09:52:53;;;;;;;0.03;0.00;;;;;;;28.44;26.49;98013.69;5044337;28;20075;-71
2023/07/07 09:55:23;;;;;;;0.10;0.10;;;;;;;28.42;26.29;98013.16;5044758;28;20048;-73
2023/07/07 09:58:00;;;;;;;0.00;0.00;;;;;;;28.35;25.92;98015.47;5048704;28;20514;-70
2023/07/07 10:00:29;;;;;;;0.00;0.00;;;;;;;28.18;26.01;98006.97;5042714;28;20112;-70
2023/07/07 10:03:19;;;;;;;0.10;0.10;;;;;;;28.52;25.05;98001.19;5046330;28;20049;-71
2023/07/07 10:05:49;;;;;;;0.10;0.10;;;;;;;28.71;25.01;98000.03;5045329;28;20053;-71
2023/07/07 10:08:16;;;;;;;0.00;0.00;;;;;;;29.01;24.46;97997.84;5060343;28;20446;-71
2023/07/07 10:10:44;;;;;;;0.00;0.00;;;;;;;29.02;24.54;98013.22;5055301;28;20047;-70
2023/07/07 10:13:14;;;;;;;0.00;0.00;;;;;;;29.00;23.38;98013.53;5052607;28;20045;-70
2023/07/07 10:15:47;;;;;;;0.00;0.00;;;;;;;28.93;23.57;98017.81;5058095;28;20460;-70
2023/07/07 10:18:19;;;;;;;0.10;0.10;;;;;;;28.23;23.84;98006.91;5053103;28;20056;-71
2023/07/07 10:20:46;;;;;;;0.00;0.00;;;;;;;28.40;23.83;98012.66;5049883;28;20045;-71
2023/07/07 10:23:15;;;;;;;0.00;0.00;;;;;;;28.49;24.00;98005.34;5057857;28;20044;-71
2023/07/07 10:25:43;;;;;;;0.00;0.00;;;;;;;28.65;24.07;98008.66;5049265;28;20488;-71
2023/07/07 10:28:13;;;;;;;0.00;0.00;;;;;;;28.46;22.74;98005.94;5051140;28;20040;-73
2023/07/07 10:30:42;;;;;;;0.00;0.00;;;;;;;28.83;22.75;98007.81;5055536;28;20037;-71
2023/07/07 10:33:12;;;;;;;0.00;0.00;;;;;;;29.06;22.51;97998.59;5050460;28;20044;-71
2023/07/07 10:35:41;;;;;;;0.00;0.00;;;;;;;28.98;22.72;98001.19;5053060;28;20041;-71
2023/07/07 10:38:10;;;;;;;0.00;0.00;;;;;;;28.75;23.72;98001.06;5049365;28;20052;-70
2023/07/07 10:40:40;;;;;;;0.00;0.00;;;;;;;29.16;23.14;98000.31;5051438;28;20514;-71
2023/07/07 10:43:11;;;;;;;0.00;0.00;;;;;;;29.50;22.45;98000.72;5051761;28;20151;-71
2023/07/07 10:45:38;;;;;;;0.00;0.00;;;;;;;29.79;21.85;98002.31;5050370;28;20400;-71
2023/07/07 10:48:12;;;;;;;0.00;0.00;;;;;;;29.80;21.92;97990.97;5054569;28;20419;-71
2023/07/07 10:50:54;;;;;;;0.00;0.00;;;;;;;29.75;22.32;97996.63;5050833;28;20132;-70
2023/07/07 10:53:32;;;;;;;0.10;0.00;;;;;;;29.92;22.19;97994.00;5055361;28;20094;-72
2023/07/07 10:56:29;;;;;;;0.00;0.00;;;;;;;29.99;21.46;97985.38;5053743;28;20047;-72
2023/07/07 10:59:28;;;;;;;0.00;0.00;;;;;;;30.03;21.87;97991.88;5019361;28;20144;-72
2023/07/07 11:02:05;;;;;;;0.03;0.03;;;;;;;29.86;22.48;97984.25;5020466;28;20063;-72
2023/07/07 11:04:58;;;;;;;0.00;0.00;;;;;;;29.71;22.51;97978.25;5054625;28;20050;-72
2023/07/07 11:07:36;;;;;;;0.10;0.10;;;;;;;30.05;22.47;97980.53;5048285;28;20040;-71
2023/07/07 11:10:17;;;;;;;0.00;0.00;;;;;;;30.35;22.21;97974.28;5053724;28;20113;-71
2023/07/07 11:12:52;;;;;;;0.00;0.00;;;;;;;30.66;22.06;97979.88;5050702;28;20053;-71
2023/07/07 11:15:27;;;;;;;0.00;0.00;;;;;;;30.57;21.85;97979.00;5048903;28;20056;-71
2023/07/07 11:18:23;;;;;;;0.10;0.00;;;;;;;30.61;22.03;97977.25;5052218;28;20127;-72
2023/07/07 11:21:00;;;;;;;0.00;0.00;;;;;;;30.81;21.76;97975.91;5050688;28;20403;-72
2023/07/07 11:23:52;;;;;;;0.03;0.00;;;;;;;30.56;22.00;97971.88;5053072;28;20040;-71
2023/07/07 11:26:29;;;;;;;0.00;0.00;;;;;;;30.44;21.93;97971.59;5050969;28;20053;-71
2023/07/07 11:28:59;;;;;;;0.00;0.00;;;;;;;30.39;21.95;97980.81;5053233;28;20045;-71
2023/07/07 11:31:38;;;;;;;0.03;0.03;;;;;;;30.26;21.93;97971.47;5051712;28;20041;-71
2023/07/07 11:34:17;;;;;;;0.10;0.05;;;;;;;30.39;21.60;97966.22;5051396;28;20049;-71
2023/07/07 11:36:53;;;;;;;0.10;0.00;;;;;;;30.06;22.22;97965.66;5042928;28;20042;-71
2023/07/07 11:39:34;;;;;;;0.03;0.03;;;;;;;30.90;21.67;97976.75;5048436;28;20377;-71
2023/07/07 11:42:18;;;;;;;0.03;0.03;;;;;;;30.79;21.74;97965.19;5047490;28;20046;-73
2023/07/07 11:44:57;;;;;;;0.10;0.00;;;;;;;31.09;21.23;97968.25;5046080;28;20411;-72
2023/07/07 11:47:38;;;;;;;0.00;0.00;;;;;;;30.40;21.71;97971.41;5052506;28;20087;-71
2023/07/07 11:50:17;;;;;;;0.00;0.00;;;;;;;29.79;22.28;97969.28;5047777;28;20527;-71